Time;durP1;ratioP1;P1;durP2;ratioP2;P2;SDS_P1;SDS_P2;PMS_P1;PMS_P2;Temp;Humidity;BMP_temperature;BMP_pressure;BME280_temperature;BME280_humidity;BME280_pressure;Samples;Min_cycle;Max_cycle;Signal;HPM_P1;HPM_P2
2022/06/14 00:01:52;;;;;;;7.03;5.07;;;;;;;;;;4433295;32;20499;-60
2022/06/14 00:04:17;;;;;;;12.88;5.55;;;;;;;;;;4434658;32;20189;-64
2022/06/14 00:06:43;;;;;;;9.88;4.72;;;;;;;;;;4434565;32;20761;-60
2022/06/14 00:09:10;;;;;;;12.43;5.65;;;;;;;;;;4432967;32;20546;-59
2022/06/14 00:11:37;;;;;;;10.32;5.85;;;;;;;;;;4434617;32;20209;-60
2022/06/14 00:14:08;;;;;;;7.53;4.47;;;;;;;;;;4434593;32;20204;-60
2022/06/14 00:16:35;;;;;;;16.58;5.20;;;;;;;;;;4433075;32;20228;-60
2022/06/14 00:19:04;;;;;;;14.65;5.95;;;;;;;;;;4434518;32;20185;-59
2022/06/14 00:21:30;;;;;;;9.43;5.72;;;;;;;;;;4432859;32;20248;-59
2022/06/14 00:23:56;;;;;;;6.97;5.00;;;;;;;;;;4434282;32;20193;-59
2022/06/14 00:26:22;;;;;;;8.02;5.53;;;;;;;;;;4434621;32;20247;-58
2022/06/14 00:28:47;;;;;;;11.30;5.35;;;;;;;;;;4434352;32;20232;-58
2022/06/14 00:31:19;;;;;;;12.80;5.75;;;;;;;;;;4434172;32;20216;-58
2022/06/14 00:33:45;;;;;;;6.85;4.53;;;;;;;;;;4434311;32;20274;-58
2022/06/14 00:36:22;;;;;;;13.73;4.93;;;;;;;;;;4434007;32;20224;-59
2022/06/14 00:38:47;;;;;;;7.15;4.85;;;;;;;;;;4433873;32;20200;-58
2022/06/14 00:41:36;;;;;;;8.70;4.95;;;;;;;;;;4434160;32;20690;-59
2022/06/14 00:44:04;;;;;;;16.83;5.20;;;;;;;;;;4434010;32;20193;-59
2022/06/14 00:46:43;;;;;;;10.25;4.97;;;;;;;;;;4433957;32;20612;-59
2022/06/14 00:49:20;;;;;;;7.93;4.68;;;;;;;;;;4433931;32;20189;-59
2022/06/14 00:51:55;;;;;;;7.03;5.75;;;;;;;;;;4434426;32;20286;-58
2022/06/14 00:54:26;;;;;;;9.00;4.45;;;;;;;;;;4433742;32;20272;-58
2022/06/14 00:57:14;;;;;;;9.63;4.97;;;;;;;;;;4434347;32;20247;-59
2022/06/14 01:00:06;;;;;;;7.85;4.53;;;;;;;;;;4433921;32;20394;-60
2022/06/14 01:02:37;;;;;;;5.47;4.97;;;;;;;;;;4433147;32;20569;-59
2022/06/14 01:05:08;;;;;;;9.30;4.60;;;;;;;;;;4434067;32;20264;-59
2022/06/14 01:07:38;;;;;;;9.65;4.30;;;;;;;;;;4432501;32;20281;-59
2022/06/14 01:10:09;;;;;;;19.48;4.57;;;;;;;;;;4433340;32;20253;-59
2022/06/14 01:12:38;;;;;;;7.57;3.78;;;;;;;;;;4433833;32;20251;-58
2022/06/14 01:15:24;;;;;;;6.57;4.30;;;;;;;;;;4433490;32;20747;-60
2022/06/14 01:18:04;;;;;;;12.65;3.87;;;;;;;;;;4433901;32;20882;-59
2022/06/14 01:20:29;;;;;;;12.02;5.07;;;;;;;;;;4433463;32;20209;-59
2022/06/14 01:22:55;;;;;;;5.93;3.95;;;;;;;;;;4433104;32;20232;-59
2022/06/14 01:25:24;;;;;;;7.72;4.37;;;;;;;;;;4432913;32;20264;-59
2022/06/14 01:27:50;;;;;;;8.75;4.85;;;;;;;;;;4433198;32;20277;-60
2022/06/14 01:30:22;;;;;;;5.90;3.87;;;;;;;;;;4433362;32;20209;-58
2022/06/14 01:32:57;;;;;;;7.53;4.30;;;;;;;;;;4433587;32;20295;-59
2022/06/14 01:35:26;;;;;;;5.05;4.50;;;;;;;;;;4433652;32;20289;-58
2022/06/14 01:37:55;;;;;;;7.90;4.60;;;;;;;;;;4432232;32;20285;-59
2022/06/14 01:40:30;;;;;;;10.05;4.15;;;;;;;;;;4433090;32;20276;-59
2022/06/14 01:43:14;;;;;;;13.18;4.45;;;;;;;;;;4432230;32;20550;-59
2022/06/14 01:45:58;;;;;;;5.75;4.37;;;;;;;;;;4433395;32;20309;-59
2022/06/14 01:48:41;;;;;;;5.78;3.87;;;;;;;;;;4433176;32;20201;-59
2022/06/14 01:54:12;;;;;;;7.12;4.18;;;;;;;;;;4432856;32;20290;-60
2022/06/14 01:56:56;;;;;;;12.80;4.78;;;;;;;;;;4433300;32;20216;-59
2022/06/14 01:59:27;;;;;;;12.95;4.45;;;;;;;;;;4432559;32;20322;-59
2022/06/14 02:02:05;;;;;;;6.18;4.43;;;;;;;;;;4432767;32;20297;-59
2022/06/14 02:04:47;;;;;;;7.53;4.12;;;;;;;;;;4433532;32;20193;-59
2022/06/14 02:07:27;;;;;;;5.35;3.97;;;;;;;;;;4433252;32;20795;-59
2022/06/14 02:10:24;;;;;;;6.12;3.83;;;;;;;;;;4432999;32;20680;-59
2022/06/14 02:13:05;;;;;;;9.35;4.30;;;;;;;;;;4433172;32;20265;-59
2022/06/14 02:15:34;;;;;;;9.75;5.12;;;;;;;;;;4432996;32;20258;-59
2022/06/14 02:18:38;;;;;;;8.57;5.15;;;;;;;;;;4433326;32;20716;-59
2022/06/14 02:21:12;;;;;;;6.35;4.82;;;;;;;;;;4399352;32;20336;-58
2022/06/14 02:23:45;;;;;;;8.43;5.18;;;;;;;;;;4417355;32;20234;-58
2022/06/14 02:26:22;;;;;;;10.88;4.60;;;;;;;;;;4417795;32;20242;-59
2022/06/14 02:28:53;;;;;;;10.38;4.85;;;;;;;;;;4417588;32;20315;-59
2022/06/14 02:31:30;;;;;;;13.15;6.22;;;;;;;;;;4416425;32;20253;-61
2022/06/14 02:34:05;;;;;;;12.52;4.85;;;;;;;;;;4417958;32;20211;-58
2022/06/14 02:36:47;;;;;;;6.25;5.12;;;;;;;;;;4422252;32;20224;-58
2022/06/14 02:39:22;;;;;;;12.52;6.68;;;;;;;;;;4432804;32;20250;-58
2022/06/14 02:41:50;;;;;;;8.48;6.95;;;;;;;;;;4433020;32;20326;-58
2022/06/14 02:44:18;;;;;;;14.45;6.18;;;;;;;;;;4432905;32;20290;-59
2022/06/14 02:46:57;;;;;;;10.07;5.43;;;;;;;;;;4432592;32;20285;-58
2022/06/14 02:49:33;;;;;;;11.00;5.43;;;;;;;;;;4432968;32;20252;-58
2022/06/14 02:52:07;;;;;;;6.80;5.30;;;;;;;;;;4432794;32;20228;-58
2022/06/14 02:54:38;;;;;;;6.85;5.07;;;;;;;;;;4432624;32;20263;-59
2022/06/14 02:57:15;;;;;;;6.07;4.75;;;;;;;;;;4432799;32;20259;-59
2022/06/14 02:59:52;;;;;;;15.77;4.78;;;;;;;;;;4431491;32;20258;-58
2022/06/14 03:02:30;;;;;;;8.13;4.82;;;;;;;;;;4424716;32;20562;-58
2022/06/14 03:05:16;;;;;;;5.10;4.53;;;;;;;;;;4417658;32;20182;-58
2022/06/14 03:07:50;;;;;;;12.23;5.15;;;;;;;;;;4393216;32;20244;-58
2022/06/14 03:10:15;;;;;;;13.23;4.45;;;;;;;;;;4417824;32;20178;-59
2022/06/14 03:13:04;;;;;;;8.48;4.60;;;;;;;;;;4420279;32;20328;-58
2022/06/14 03:15:40;;;;;;;6.50;4.60;;;;;;;;;;4434143;32;20205;-58
2022/06/14 03:18:44;;;;;;;10.73;5.55;;;;;;;;;;4435801;32;20220;-58
2022/06/14 03:21:10;;;;;;;8.82;5.22;;;;;;;;;;4434884;32;20320;-58
2022/06/14 03:23:47;;;;;;;7.53;4.70;;;;;;;;;;4435150;32;20266;-59
2022/06/14 03:26:18;;;;;;;8.25;5.43;;;;;;;;;;4435291;32;20221;-59
2022/06/14 03:28:49;;;;;;;8.10;5.35;;;;;;;;;;4435372;32;20227;-60
2022/06/14 03:31:32;;;;;;;10.57;5.00;;;;;;;;;;4435252;32;20507;-60
2022/06/14 03:34:04;;;;;;;7.45;5.53;;;;;;;;;;4435258;32;20186;-59
2022/06/14 03:36:30;;;;;;;9.65;5.35;;;;;;;;;;4434982;32;20236;-59
2022/06/14 03:39:00;;;;;;;13.27;5.97;;;;;;;;;;4434872;32;20193;-59
2022/06/14 03:41:31;;;;;;;7.37;5.55;;;;;;;;;;4434991;32;20647;-58
2022/06/14 03:43:59;;;;;;;7.70;5.25;;;;;;;;;;4434876;32;20491;-60
2022/06/14 03:46:35;;;;;;;29.42;6.12;;;;;;;;;;4434888;32;20217;-59
2022/06/14 03:49:11;;;;;;;7.65;5.10;;;;;;;;;;4434986;32;20192;-59
2022/06/14 03:52:00;;;;;;;6.10;4.68;;;;;;;;;;4435023;32;20233;-59
2022/06/14 03:55:07;;;;;;;12.15;5.00;;;;;;;;;;4434691;32;20231;-59
2022/06/14 03:57:54;;;;;;;10.55;5.05;;;;;;;;;;4412260;32;20803;-59
2022/06/14 04:00:40;;;;;;;11.77;5.05;;;;;;;;;;4435007;32;20224;-59
2022/06/14 04:03:15;;;;;;;5.10;4.18;;;;;;;;;;4434264;32;20229;-58
2022/06/14 04:06:01;;;;;;;10.23;4.55;;;;;;;;;;4434755;32;20311;-58
2022/06/14 04:09:08;;;;;;;6.72;4.15;;;;;;;;;;4434351;32;20306;-59
2022/06/14 04:11:36;;;;;;;11.40;4.75;;;;;;;;;;4434838;32;20217;-59
2022/06/14 04:14:42;;;;;;;6.75;4.10;;;;;;;;;;4434410;32;20302;-59
2022/06/14 04:17:18;;;;;;;8.70;6.32;;;;;;;;;;4434663;32;20213;-59
2022/06/14 04:19:53;;;;;;;9.57;4.32;;;;;;;;;;4434674;32;20220;-59
2022/06/14 04:22:44;;;;;;;7.95;3.97;;;;;;;;;;4433475;32;20687;-59
2022/06/14 04:25:18;;;;;;;5.62;4.35;;;;;;;;;;4434178;32;20207;-59
2022/06/14 04:28:09;;;;;;;7.65;3.97;;;;;;;;;;4434534;32;20225;-58
2022/06/14 04:30:41;;;;;;;6.00;4.25;;;;;;;;;;4434101;32;20185;-59
2022/06/14 04:33:17;;;;;;;6.70;3.92;;;;;;;;;;4433847;32;20272;-59
2022/06/14 04:36:18;;;;;;;5.05;4.18;;;;;;;;;;4434731;32;20185;-58
2022/06/14 04:38:56;;;;;;;6.87;4.22;;;;;;;;;;4410606;32;20723;-59
2022/06/14 04:41:34;;;;;;;13.80;4.70;;;;;;;;;;4434371;32;20836;-60
2022/06/14 04:44:08;;;;;;;6.03;3.92;;;;;;;;;;4434677;32;20201;-58
2022/06/14 04:46:40;;;;;;;12.82;4.60;;;;;;;;;;4434255;32;20303;-58
2022/06/14 04:49:16;;;;;;;16.15;4.32;;;;;;;;;;4434317;32;20658;-59
2022/06/14 04:51:51;;;;;;;4.07;3.60;;;;;;;;;;4433737;32;20213;-61
2022/06/14 04:54:50;;;;;;;6.35;3.60;;;;;;;;;;4434041;32;20193;-61
2022/06/14 04:57:35;;;;;;;5.18;4.55;;;;;;;;;;4393140;32;20263;-60
2022/06/14 05:00:06;;;;;;;18.33;3.62;;;;;;;;;;4434227;32;20598;-59
2022/06/14 05:02:45;;;;;;;4.32;3.50;;;;;;;;;;4424312;32;20577;-60
2022/06/14 05:05:19;;;;;;;4.32;3.60;;;;;;;;;;4418797;32;20625;-59
2022/06/14 05:07:51;;;;;;;10.00;3.92;;;;;;;;;;4418377;32;20244;-61
2022/06/14 05:10:23;;;;;;;4.93;3.87;;;;;;;;;;4418710;32;20194;-60
2022/06/14 05:13:15;;;;;;;7.35;4.62;;;;;;;;;;4418231;32;20731;-59
2022/06/14 05:15:55;;;;;;;7.15;4.18;;;;;;;;;;4389222;32;20360;-60
2022/06/14 05:18:27;;;;;;;7.65;4.03;;;;;;;;;;4418755;32;20584;-59
2022/06/14 05:20:57;;;;;;;8.80;4.28;;;;;;;;;;4424498;32;20304;-59
2022/06/14 05:23:37;;;;;;;6.30;4.82;;;;;;;;;;4433260;32;20655;-59
2022/06/14 05:26:24;;;;;;;5.62;4.22;;;;;;;;;;4433700;32;20264;-60
2022/06/14 05:28:56;;;;;;;5.32;4.50;;;;;;;;;;4432703;32;20236;-60
2022/06/14 05:31:40;;;;;;;9.68;4.40;;;;;;;;;;4431274;32;20225;-60
2022/06/14 05:34:05;;;;;;;22.17;7.50;;;;;;;;;;4433021;32;20230;-60
2022/06/14 05:36:38;;;;;;;6.87;5.22;;;;;;;;;;4432299;32;20239;-59
2022/06/14 05:39:19;;;;;;;7.28;5.37;;;;;;;;;;4432452;32;20317;-59
2022/06/14 05:41:56;;;;;;;6.70;5.10;;;;;;;;;;4433556;32;20251;-59
2022/06/14 05:44:35;;;;;;;18.00;5.45;;;;;;;;;;4433312;32;20184;-60
2022/06/14 05:47:12;;;;;;;7.32;5.35;;;;;;;;;;4432743;32;20212;-59
2022/06/14 05:49:43;;;;;;;15.90;6.22;;;;;;;;;;4433504;32;20219;-59
2022/06/14 05:52:15;;;;;;;8.82;4.75;;;;;;;;;;4433261;32;20272;-61
2022/06/14 05:54:48;;;;;;;7.68;5.03;;;;;;;;;;4433352;32;20815;-59
2022/06/14 05:57:25;;;;;;;15.07;5.47;;;;;;;;;;4432347;32;20351;-60
2022/06/14 06:00:10;;;;;;;13.18;5.57;;;;;;;;;;4433050;32;20487;-60
2022/06/14 06:03:04;;;;;;;8.27;5.70;;;;;;;;;;4430175;32;20307;-60
2022/06/14 06:05:39;;;;;;;10.68;5.15;;;;;;;;;;4430149;32;20225;-59
2022/06/14 06:08:11;;;;;;;13.05;5.85;;;;;;;;;;4431864;32;20325;-59
2022/06/14 06:10:43;;;;;;;11.07;5.15;;;;;;;;;;4432990;32;20253;-59
2022/06/14 06:13:16;;;;;;;14.02;5.95;;;;;;;;;;4432533;32;20768;-59
2022/06/14 06:15:47;;;;;;;11.98;5.60;;;;;;;;;;4430108;32;20246;-60
2022/06/14 06:18:49;;;;;;;12.43;6.40;;;;;;;;;;4430196;32;20390;-60
2022/06/14 06:21:36;;;;;;;11.30;6.03;;;;;;;;;;4417035;32;20292;-60
2022/06/14 06:24:20;;;;;;;10.50;5.37;;;;;;;;;;4431657;32;20535;-60
2022/06/14 06:26:52;;;;;;;12.25;5.62;;;;;;;;;;4432087;32;20209;-59
2022/06/14 06:29:26;;;;;;;6.20;5.20;;;;;;;;;;4430822;32;20292;-60
2022/06/14 06:31:52;;;;;;;18.05;5.55;;;;;;;;;;4431650;32;20217;-59
2022/06/14 06:34:18;;;;;;;12.00;5.45;;;;;;;;;;4432625;32;20243;-59
2022/06/14 06:36:59;;;;;;;22.67;6.70;;;;;;;;;;4431732;32;20247;-58
2022/06/14 06:39:32;;;;;;;14.10;5.32;;;;;;;;;;4432412;32;20257;-58
2022/06/14 06:42:04;;;;;;;19.27;7.15;;;;;;;;;;4431678;32;20592;-58
2022/06/14 06:44:43;;;;;;;11.55;7.32;;;;;;;;;;4430414;32;20196;-59
2022/06/14 06:47:30;;;;;;;12.02;6.12;;;;;;;;;;4434753;32;20364;-60
2022/06/14 06:50:04;;;;;;;10.82;6.50;;;;;;;;;;4434593;32;20200;-59
2022/06/14 06:53:07;;;;;;;16.58;6.95;;;;;;;;;;4434608;32;20259;-59
2022/06/14 06:55:59;;;;;;;12.13;7.72;;;;;;;;;;4434445;32;20470;-58
2022/06/14 06:58:34;;;;;;;16.10;5.65;;;;;;;;;;4434828;32;20290;-58
2022/06/14 07:01:04;;;;;;;8.73;6.30;;;;;;;;;;4434440;32;20242;-58
2022/06/14 07:03:45;;;;;;;5.82;4.57;;;;;;;;;;4417826;32;20464;-58
2022/06/14 07:06:35;;;;;;;16.10;6.20;;;;;;;;;;4419409;32;20247;-58
2022/06/14 07:09:12;;;;;;;19.80;5.90;;;;;;;;;;4419376;32;20621;-59
2022/06/14 07:11:46;;;;;;;7.97;4.80;;;;;;;;;;4419260;32;20277;-58
2022/06/14 07:14:42;;;;;;;8.70;5.85;;;;;;;;;;4419326;32;20375;-60
2022/06/14 07:17:15;;;;;;;9.05;5.47;;;;;;;;;;4414060;32;20672;-59
2022/06/14 07:19:44;;;;;;;5.50;4.97;;;;;;;;;;4434339;32;20766;-58
2022/06/14 07:22:22;;;;;;;8.00;5.10;;;;;;;;;;4433436;32;20443;-58
2022/06/14 07:25:14;;;;;;;6.65;5.95;;;;;;;;;;4434646;32;20204;-60
2022/06/14 07:27:47;;;;;;;5.57;5.05;;;;;;;;;;4433688;32;20703;-60
2022/06/14 07:30:20;;;;;;;10.27;4.75;;;;;;;;;;4435027;32;20278;-59
2022/06/14 07:32:52;;;;;;;10.20;6.10;;;;;;;;;;4435161;32;20235;-59
2022/06/14 07:35:26;;;;;;;4.80;4.35;;;;;;;;;;4435249;32;20208;-59
2022/06/14 07:38:05;;;;;;;5.30;4.75;;;;;;;;;;4435480;32;20243;-60
2022/06/14 07:40:56;;;;;;;6.45;5.35;;;;;;;;;;4421773;32;20277;-59
2022/06/14 07:44:00;;;;;;;12.10;5.43;;;;;;;;;;4425676;32;20228;-60
2022/06/14 07:46:32;;;;;;;9.65;6.10;;;;;;;;;;4419825;32;20246;-59
2022/06/14 07:49:07;;;;;;;7.18;5.00;;;;;;;;;;4435320;32;20254;-60
2022/06/14 07:51:42;;;;;;;7.53;4.78;;;;;;;;;;4449842;32;20366;-60
2022/06/14 07:54:28;;;;;;;5.45;4.95;;;;;;;;;;4450268;32;20214;-60
2022/06/14 07:56:57;;;;;;;6.43;5.22;;;;;;;;;;4449115;32;20386;-60
2022/06/14 07:59:31;;;;;;;5.90;5.10;;;;;;;;;;4450083;32;20268;-61
2022/06/14 08:02:03;;;;;;;6.37;5.07;;;;;;;;;;4443503;32;20233;-59
2022/06/14 08:04:59;;;;;;;8.50;5.60;;;;;;;;;;4434951;32;20201;-60
2022/06/14 08:07:26;;;;;;;6.93;4.85;;;;;;;;;;4433133;32;20217;-60
2022/06/14 08:10:16;;;;;;;9.85;6.12;;;;;;;;;;4433096;32;20231;-60
2022/06/14 08:12:45;;;;;;;6.50;5.75;;;;;;;;;;4433918;32;20641;-60
2022/06/14 08:15:18;;;;;;;6.43;4.87;;;;;;;;;;4432543;32;20284;-59
2022/06/14 08:18:03;;;;;;;8.57;6.00;;;;;;;;;;4432535;32;20315;-57
2022/06/14 08:20:44;;;;;;;6.70;4.90;;;;;;;;;;4434284;32;20657;-58
2022/06/14 08:23:29;;;;;;;6.62;5.12;;;;;;;;;;4433393;32;20365;-58
2022/06/14 08:26:26;;;;;;;6.18;4.78;;;;;;;;;;4433589;32;20205;-58
2022/06/14 08:29:10;;;;;;;10.32;4.43;;;;;;;;;;4399512;32;20294;-58
2022/06/14 08:32:07;;;;;;;7.22;5.78;;;;;;;;;;4433728;32;20247;-59
2022/06/14 08:34:40;;;;;;;9.82;4.68;;;;;;;;;;4433836;32;20284;-59
2022/06/14 08:37:20;;;;;;;16.83;5.50;;;;;;;;;;4433281;32;20252;-58
2022/06/14 08:39:55;;;;;;;7.53;4.72;;;;;;;;;;4433910;32;20197;-58
2022/06/14 08:42:38;;;;;;;6.07;4.57;;;;;;;;;;4433508;32;20232;-58
2022/06/14 08:45:19;;;;;;;14.05;4.75;;;;;;;;;;4433347;32;20337;-57
2022/06/14 08:48:03;;;;;;;4.85;4.20;;;;;;;;;;4432418;32;20272;-58
2022/06/14 08:50:47;;;;;;;8.00;4.35;;;;;;;;;;4433275;32;20224;-58
2022/06/14 08:53:46;;;;;;;6.25;5.15;;;;;;;;;;4432877;32;20306;-58
2022/06/14 08:56:37;;;;;;;5.53;4.80;;;;;;;;;;4433551;32;20213;-58
2022/06/14 08:59:09;;;;;;;8.30;4.75;;;;;;;;;;4433184;32;20287;-58
2022/06/14 09:01:49;;;;;;;17.70;4.95;;;;;;;;;;4429820;32;20260;-59
2022/06/14 09:04:26;;;;;;;7.70;3.78;;;;;;;;;;4418281;32;20598;-59
2022/06/14 09:07:13;;;;;;;8.75;4.10;;;;;;;;;;4417999;32;20236;-59
2022/06/14 09:10:06;;;;;;;6.05;4.78;;;;;;;;;;4416677;32;20607;-59
2022/06/14 09:12:44;;;;;;;7.32;4.20;;;;;;;;;;4417837;32;20255;-59
2022/06/14 09:15:47;;;;;;;7.18;4.50;;;;;;;;;;4421881;32;20224;-58
2022/06/14 09:18:24;;;;;;;15.40;5.45;;;;;;;;;;4426094;32;20284;-59
2022/06/14 09:21:07;;;;;;;12.88;5.90;;;;;;;;;;4432622;32;20233;-59
2022/06/14 09:24:03;;;;;;;8.48;6.25;;;;;;;;;;4433251;32;20288;-59
2022/06/14 09:26:43;;;;;;;7.97;5.35;;;;;;;;;;4433136;32;20240;-59
2022/06/14 09:29:35;;;;;;;11.48;6.07;;;;;;;;;;4432900;32;20215;-58
2022/06/14 09:33:09;;;;;;;7.60;5.03;;;;;;;;;;4433354;32;20277;-58
2022/06/14 09:35:35;;;;;;;6.55;4.90;;;;;;;;;;4415979;32;20285;-58
2022/06/14 09:38:06;;;;;;;7.90;4.85;;;;;;;;;;4429424;32;20225;-59
2022/06/14 09:41:11;;;;;;;8.13;3.80;;;;;;;;;;4432747;32;20281;-59
2022/06/14 09:43:42;;;;;;;4.82;4.10;;;;;;;;;;4432014;32;20221;-58
2022/06/14 09:46:29;;;;;;;8.25;3.42;;;;;;;;;;4433268;32;20625;-59
2022/06/14 09:49:21;;;;;;;4.60;3.58;;;;;;;;;;4433088;32;20197;-59
2022/06/14 09:51:56;;;;;;;3.92;3.40;;;;;;;;;;4432943;32;20217;-59
2022/06/14 09:54:58;;;;;;;6.25;4.40;;;;;;;;;;4432826;32;20354;-59
2022/06/14 09:58:01;;;;;;;4.78;3.40;;;;;;;;;;4432847;32;20274;-59
2022/06/14 10:00:46;;;;;;;4.82;4.03;;;;;;;;;;4431565;32;20560;-58
2022/06/14 10:03:34;;;;;;;4.45;3.17;;;;;;;;;;4430238;32;20354;-58
2022/06/14 10:06:50;;;;;;;4.37;3.97;;;;;;;;;;4431001;32;20627;-57
2022/06/14 10:09:35;;;;;;;5.20;4.00;;;;;;;;;;4405549;32;20321;-58
2022/06/14 10:12:30;;;;;;;9.30;4.53;;;;;;;;;;4432582;32;20285;-58
2022/06/14 10:15:21;;;;;;;7.00;3.87;;;;;;;;;;4414171;32;20213;-58
2022/06/14 10:18:17;;;;;;;11.65;3.25;;;;;;;;;;4432059;32;20284;-57
2022/06/14 10:20:53;;;;;;;6.25;3.58;;;;;;;;;;4433723;32;20206;-58
2022/06/14 10:23:40;;;;;;;9.80;3.03;;;;;;;;;;4435863;32;20251;-58
2022/06/14 10:29:09;;;;;;;12.98;4.10;;;;;;;;;;4435963;32;20635;-59
2022/06/14 10:31:59;;;;;;;8.18;3.47;;;;;;;;;;4436054;32;20232;-58
2022/06/14 10:34:37;;;;;;;5.15;3.53;;;;;;;;;;4436189;32;20205;-58
2022/06/14 10:37:11;;;;;;;9.75;3.30;;;;;;;;;;4435445;32;20240;-57
2022/06/14 10:39:58;;;;;;;5.43;3.03;;;;;;;;;;4435858;32;20246;-57
2022/06/14 10:42:45;;;;;;;3.80;3.03;;;;;;;;;;4435724;32;20251;-57
2022/06/14 10:45:37;;;;;;;12.23;4.15;;;;;;;;;;4435550;32;20227;-58
2022/06/14 10:48:13;;;;;;;12.20;3.45;;;;;;;;;;4428780;32;20287;-58
2022/06/14 10:51:07;;;;;;;7.25;2.83;;;;;;;;;;4435569;32;20613;-57
2022/06/14 10:53:48;;;;;;;5.10;3.33;;;;;;;;;;4435468;32;20249;-58
2022/06/14 10:56:37;;;;;;;4.82;2.97;;;;;;;;;;4435468;32;20245;-58
2022/06/14 10:59:39;;;;;;;5.82;3.22;;;;;;;;;;4406320;32;20463;-58
2022/06/14 11:02:22;;;;;;;4.28;3.35;;;;;;;;;;4429015;32;20220;-58
2022/06/14 11:04:54;;;;;;;27.13;4.80;;;;;;;;;;4419057;32;20288;-59
2022/06/14 11:07:33;;;;;;;10.52;3.95;;;;;;;;;;4419898;32;20224;-59
2022/06/14 11:10:24;;;;;;;6.03;3.10;;;;;;;;;;4419172;32;20305;-59
2022/06/14 11:12:52;;;;;;;5.80;2.87;;;;;;;;;;4428232;32;20228;-60
2022/06/14 11:15:40;;;;;;;2.87;2.60;;;;;;;;;;4435341;32;20233;-59
2022/06/14 11:18:05;;;;;;;3.35;2.62;;;;;;;;;;4433947;32;20233;-58
2022/06/14 11:20:43;;;;;;;4.97;2.75;;;;;;;;;;4434732;32;20412;-59
2022/06/14 11:23:43;;;;;;;13.80;2.60;;;;;;;;;;4434967;32;20255;-58
2022/06/14 11:26:31;;;;;;;6.10;2.37;;;;;;;;;;4435060;32;20256;-59
2022/06/14 11:29:15;;;;;;;3.22;2.30;;;;;;;;;;4435339;32;20260;-59
2022/06/14 11:32:08;;;;;;;3.78;2.75;;;;;;;;;;4434925;32;20676;-60
2022/06/14 11:34:52;;;;;;;3.33;2.53;;;;;;;;;;4435268;32;20185;-59
2022/06/14 11:37:26;;;;;;;3.00;2.20;;;;;;;;;;4434800;32;20224;-59
2022/06/14 11:40:01;;;;;;;3.95;2.50;;;;;;;;;;4435455;32;20200;-60
2022/06/14 11:42:31;;;;;;;4.55;2.55;;;;;;;;;;4435032;32;20256;-60
2022/06/14 11:45:17;;;;;;;9.07;2.42;;;;;;;;;;4435248;32;20215;-60
2022/06/14 11:48:16;;;;;;;2.25;1.90;;;;;;;;;;4434412;32;20269;-60
2022/06/14 11:51:08;;;;;;;3.08;2.30;;;;;;;;;;4434613;32;20268;-60
2022/06/14 11:53:43;;;;;;;3.28;2.10;;;;;;;;;;4434859;32;20238;-60
2022/06/14 11:56:21;;;;;;;16.15;2.35;;;;;;;;;;4434725;32;20228;-60
2022/06/14 11:58:53;;;;;;;4.15;2.15;;;;;;;;;;4435103;32;20270;-60
2022/06/14 12:02:04;;;;;;;11.40;2.78;;;;;;;;;;4434638;32;20287;-60
2022/06/14 12:05:09;;;;;;;5.10;2.47;;;;;;;;;;4414344;32;20312;-59
2022/06/14 12:07:45;;;;;;;4.53;1.80;;;;;;;;;;4434677;32;20430;-60
2022/06/14 12:10:22;;;;;;;4.03;1.80;;;;;;;;;;4434604;32;20196;-60
2022/06/14 12:12:58;;;;;;;2.87;1.70;;;;;;;;;;4433191;32;20279;-60
2022/06/14 12:15:58;;;;;;;5.70;2.03;;;;;;;;;;4433349;32;20270;-60
2022/06/14 12:18:27;;;;;;;3.55;2.30;;;;;;;;;;4400537;32;20325;-59
2022/06/14 12:21:11;;;;;;;7.55;1.98;;;;;;;;;;4433788;32;20268;-60
2022/06/14 12:23:50;;;;;;;3.58;2.10;;;;;;;;;;4433015;32;20264;-60
2022/06/14 12:26:39;;;;;;;2.10;1.65;;;;;;;;;;4434737;32;20216;-60
2022/06/14 12:29:17;;;;;;;1.60;1.50;;;;;;;;;;4434917;32;20602;-60
2022/06/14 12:32:18;;;;;;;4.18;1.87;;;;;;;;;;4434174;32;20209;-59
2022/06/14 12:34:43;;;;;;;4.95;1.67;;;;;;;;;;4434079;32;20257;-60
2022/06/14 12:37:21;;;;;;;4.15;1.80;;;;;;;;;;4434095;32;20344;-60
2022/06/14 12:39:52;;;;;;;1.45;1.23;;;;;;;;;;4434647;32;20312;-60
2022/06/14 12:42:26;;;;;;;3.12;1.52;;;;;;;;;;4434103;32;20232;-60
2022/06/14 12:45:17;;;;;;;2.12;1.33;;;;;;;;;;4433014;32;20229;-61
2022/06/14 12:48:01;;;;;;;1.95;1.70;;;;;;;;;;4434197;32;20276;-60
2022/06/14 12:50:32;;;;;;;1.95;1.45;;;;;;;;;;4433766;32;20230;-60
2022/06/14 12:53:05;;;;;;;1.90;1.27;;;;;;;;;;4434429;32;20216;-60
2022/06/14 12:55:39;;;;;;;3.28;1.70;;;;;;;;;;4433874;32;20219;-60
2022/06/14 12:58:34;;;;;;;7.90;2.47;;;;;;;;;;4432873;32;20260;-60
2022/06/14 13:01:19;;;;;;;13.27;2.03;;;;;;;;;;4432826;32;20343;-60
2022/06/14 13:04:11;;;;;;;11.27;2.70;;;;;;;;;;4432754;32;20369;-59
2022/06/14 13:07:01;;;;;;;3.33;1.92;;;;;;;;;;4433558;32;20201;-59
2022/06/14 13:10:04;;;;;;;10.73;2.45;;;;;;;;;;4433853;32;20285;-59
2022/06/14 13:12:54;;;;;;;9.93;2.08;;;;;;;;;;4433783;32;20308;-59
2022/06/14 13:15:29;;;;;;;4.87;2.30;;;;;;;;;;4433228;32;20216;-60
2022/06/14 13:18:12;;;;;;;9.98;2.15;;;;;;;;;;4433028;32;20354;-60
2022/06/14 13:21:16;;;;;;;11.57;1.92;;;;;;;;;;4433047;32;20618;-60
2022/06/14 13:24:05;;;;;;;2.25;1.60;;;;;;;;;;4419225;32;20256;-60
2022/06/14 13:26:35;;;;;;;3.15;1.50;;;;;;;;;;4433454;32;20292;-60
2022/06/14 13:29:22;;;;;;;8.63;2.08;;;;;;;;;;4433430;32;20231;-60
2022/06/14 13:32:17;;;;;;;2.58;1.45;;;;;;;;;;4433312;32;20378;-61
2022/06/14 13:35:16;;;;;;;16.85;2.05;;;;;;;;;;4410336;32;20260;-60
2022/06/14 13:37:44;;;;;;;3.83;2.12;;;;;;;;;;4433025;32;20566;-60
2022/06/14 13:40:26;;;;;;;3.67;1.48;;;;;;;;;;4432029;32;20241;-59
2022/06/14 13:43:04;;;;;;;7.62;2.20;;;;;;;;;;4433137;32;20561;-59
2022/06/14 13:45:45;;;;;;;30.48;2.90;;;;;;;;;;4433385;32;20216;-61
2022/06/14 13:48:22;;;;;;;2.47;1.35;;;;;;;;;;4433056;32;20221;-60
2022/06/14 13:50:53;;;;;;;3.08;1.67;;;;;;;;;;4433177;32;20521;-59
2022/06/14 13:53:28;;;;;;;2.55;1.90;;;;;;;;;;4433222;32;20232;-59
2022/06/14 13:56:12;;;;;;;6.53;1.90;;;;;;;;;;4433187;32;20308;-59
2022/06/14 13:58:46;;;;;;;6.25;1.90;;;;;;;;;;4431896;32;20251;-59
2022/06/14 14:01:26;;;;;;;4.82;1.65;;;;;;;;;;4432872;32;20523;-59
2022/06/14 14:04:19;;;;;;;2.20;1.25;;;;;;;;;;4431829;32;20290;-59
2022/06/14 14:07:09;;;;;;;2.62;1.87;;;;;;;;;;4433109;32;20237;-60
2022/06/14 14:09:44;;;;;;;3.72;1.73;;;;;;;;;;4432629;32;20259;-60
2022/06/14 14:12:33;;;;;;;2.00;1.58;;;;;;;;;;4431532;32;20663;-60
2022/06/14 14:15:33;;;;;;;2.00;1.45;;;;;;;;;;4433138;32;20289;-58
2022/06/14 14:17:59;;;;;;;5.72;1.73;;;;;;;;;;4412698;32;20232;-59
2022/06/14 14:20:36;;;;;;;4.95;1.75;;;;;;;;;;4427056;32;20247;-58
2022/06/14 14:23:04;;;;;;;4.85;2.20;;;;;;;;;;4425910;32;20288;-59
2022/06/14 14:25:54;;;;;;;6.28;1.55;;;;;;;;;;4431382;32;20259;-59
2022/06/14 14:28:37;;;;;;;6.00;1.45;;;;;;;;;;4432912;32;20311;-59
2022/06/14 14:31:27;;;;;;;2.97;1.37;;;;;;;;;;4432905;32;20459;-59
2022/06/14 14:34:18;;;;;;;2.35;1.37;;;;;;;;;;4432246;32;20336;-60
2022/06/14 14:36:59;;;;;;;8.55;1.92;;;;;;;;;;4431140;32;20334;-60
2022/06/14 14:39:30;;;;;;;3.60;1.45;;;;;;;;;;4433150;32;20208;-60
2022/06/14 14:42:07;;;;;;;2.97;1.45;;;;;;;;;;4432296;32;20244;-60
2022/06/14 14:44:36;;;;;;;5.05;1.83;;;;;;;;;;4431215;32;20237;-59
2022/06/14 14:47:21;;;;;;;5.35;1.92;;;;;;;;;;4431763;32;20244;-60
2022/06/14 14:50:06;;;;;;;6.35;2.20;;;;;;;;;;4431827;32;20268;-60
2022/06/14 14:52:37;;;;;;;5.68;1.60;;;;;;;;;;4432030;32;20667;-60
2022/06/14 14:55:27;;;;;;;1.85;1.48;;;;;;;;;;4432560;32;20353;-59
2022/06/14 14:58:00;;;;;;;2.67;1.73;;;;;;;;;;4431103;32;20379;-59
2022/06/14 15:06:22;;;;;;;5.15;2.03;;;;;;;;;;4433367;32;20278;-60
2022/06/14 15:09:03;;;;;;;7.30;2.17;;;;;;;;;;4435122;32;20296;-59
2022/06/14 15:11:29;;;;;;;5.55;1.55;;;;;;;;;;4435377;32;20308;-60
2022/06/14 15:13:58;;;;;;;1.70;1.37;;;;;;;;;;4435222;32;20272;-60
2022/06/14 15:16:44;;;;;;;2.78;1.87;;;;;;;;;;4434064;32;20303;-60
2022/06/14 15:22:19;;;;;;;2.00;1.50;;;;;;;;;;4422026;32;20511;-59
2022/06/14 15:25:13;;;;;;;4.20;2.25;;;;;;;;;;4435636;32;20185;-59
2022/06/14 15:27:45;;;;;;;4.10;1.80;;;;;;;;;;4429812;32;20221;-59
2022/06/14 15:30:32;;;;;;;2.15;1.30;;;;;;;;;;4435201;32;20305;-59
2022/06/14 15:33:12;;;;;;;2.80;1.58;;;;;;;;;;4421186;32;20241;-59
2022/06/14 15:35:52;;;;;;;2.10;1.45;;;;;;;;;;4434989;32;20513;-60
2022/06/14 15:38:22;;;;;;;8.07;1.92;;;;;;;;;;4418833;32;20239;-59
2022/06/14 15:41:01;;;;;;;5.65;1.33;;;;;;;;;;4420097;32;20252;-60
2022/06/14 15:43:29;;;;;;;3.33;1.70;;;;;;;;;;4418756;32;20251;-59
2022/06/14 15:45:57;;;;;;;3.03;1.25;;;;;;;;;;4418758;32;20646;-59
2022/06/14 15:48:35;;;;;;;2.30;1.37;;;;;;;;;;4419901;32;20295;-60
2022/06/14 15:51:13;;;;;;;1.98;1.67;;;;;;;;;;4419814;32;20329;-59
2022/06/14 15:53:41;;;;;;;7.50;1.23;;;;;;;;;;4419637;32;20205;-59
2022/06/14 15:56:38;;;;;;;7.72;3.28;;;;;;;;;;4419500;32;20343;-59
2022/06/14 15:59:14;;;;;;;7.68;1.50;;;;;;;;;;4414961;32;20296;-58
2022/06/14 16:01:42;;;;;;;4.05;2.03;;;;;;;;;;4419695;32;20256;-58
2022/06/14 16:04:12;;;;;;;2.72;1.85;;;;;;;;;;4419162;32;20587;-58
2022/06/14 16:06:42;;;;;;;6.87;3.25;;;;;;;;;;4432728;32;20209;-58
2022/06/14 16:09:13;;;;;;;5.22;1.50;;;;;;;;;;4434932;32;20243;-58
2022/06/14 16:11:49;;;;;;;5.07;1.50;;;;;;;;;;4434645;32;20213;-58